Time;durP1;ratioP1;P1;durP2;ratioP2;P2;SDS_P1;SDS_P2;PMS_P1;PMS_P2;Temp;Humidity;BMP_temperature;BMP_pressure;BME280_temperature;BME280_humidity;BME280_pressure;Samples;Min_cycle;Max_cycle;Signal;HPM_P1;HPM_P2
2021/05/25 00:00:31;;;;;;;4.07;1.67;;;;;;;11.02;60.17;100229.78;5084655;28;20028;-66
2021/05/25 00:02:57;;;;;;;4.75;1.90;;;;;;;10.90;60.58;100226.47;5084447;28;20032;-67
2021/05/25 00:05:28;;;;;;;5.20;1.75;;;;;;;10.93;60.53;100217.78;5084270;28;20036;-66
2021/05/25 00:07:55;;;;;;;5.72;2.08;;;;;;;10.90;60.54;100221.28;5084468;28;20138;-66
2021/05/25 00:10:21;;;;;;;5.63;2.20;;;;;;;10.95;60.24;100221.22;5084376;28;20055;-67
2021/05/25 00:12:46;;;;;;;2.53;1.50;;;;;;;11.15;59.61;100214.88;5083831;28;20028;-66
2021/05/25 00:15:21;;;;;;;2.00;1.55;;;;;;;11.03;59.83;100209.00;5084386;28;20075;-66
2021/05/25 00:17:47;;;;;;;5.05;2.15;;;;;;;10.85;60.46;100212.69;5083854;28;20033;-65
2021/05/25 00:20:13;;;;;;;4.43;1.80;;;;;;;10.85;60.59;100201.41;5083966;28;20025;-65
2021/05/25 00:22:39;;;;;;;3.30;1.88;;;;;;;10.78;60.73;100208.44;5084261;28;20107;-67
2021/05/25 00:25:07;;;;;;;2.75;2.00;;;;;;;10.70;60.90;100210.28;5084014;28;20381;-66
2021/05/25 00:27:33;;;;;;;5.22;1.90;;;;;;;10.69;60.91;100201.63;5083639;28;20028;-67
2021/05/25 00:29:58;;;;;;;5.93;1.80;;;;;;;10.80;60.40;100196.28;5083812;28;20024;-67
2021/05/25 00:32:23;;;;;;;2.60;1.52;;;;;;;11.13;59.13;100194.09;5083891;28;20119;-66
2021/05/25 00:34:49;;;;;;;2.45;1.30;;;;;;;10.94;59.54;100192.66;5084327;28;20027;-65
2021/05/25 00:37:14;;;;;;;2.67;1.92;;;;;;;11.05;58.95;100188.19;5084203;28;20020;-65
2021/05/25 00:39:40;;;;;;;3.28;1.67;;;;;;;10.90;59.18;100174.53;5083826;28;20035;-66
2021/05/25 00:42:05;;;;;;;2.60;1.50;;;;;;;10.92;59.26;100182.28;5083757;28;20040;-66
2021/05/25 00:44:31;;;;;;;2.30;1.55;;;;;;;11.11;58.65;100180.31;5083701;28;20024;-65
2021/05/25 00:46:56;;;;;;;2.20;1.60;;;;;;;10.87;59.19;100174.56;5083634;28;20498;-65
2021/05/25 00:49:22;;;;;;;2.55;1.45;;;;;;;11.00;58.68;100174.41;5083662;28;20021;-65
2021/05/25 00:51:47;;;;;;;4.28;1.70;;;;;;;10.65;59.73;100174.00;5082764;28;20293;-65
2021/05/25 00:54:13;;;;;;;2.67;1.60;;;;;;;10.86;59.25;100172.00;5083453;28;20080;-65
2021/05/25 00:56:39;;;;;;;2.78;1.33;;;;;;;10.90;58.83;100173.66;5082167;28;20044;-66
2021/05/25 00:59:04;;;;;;;3.58;1.70;;;;;;;10.91;58.63;100165.84;5083112;28;20017;-65
2021/05/25 01:01:30;;;;;;;2.08;1.50;;;;;;;10.81;59.05;100174.66;5083589;28;20027;-66
2021/05/25 01:03:56;;;;;;;6.25;1.88;;;;;;;10.58;59.74;100168.00;5083613;28;20065;-65
2021/05/25 01:06:22;;;;;;;2.28;1.92;;;;;;;10.82;58.88;100159.91;5082045;28;20050;-65
2021/05/25 01:08:48;;;;;;;4.18;1.60;;;;;;;10.49;60.03;100171.59;5083715;28;20032;-67
2021/05/25 01:11:16;;;;;;;4.38;2.05;;;;;;;10.36;60.41;100165.66;5083578;28;20456;-66
2021/05/25 01:13:54;;;;;;;3.10;1.88;;;;;;;10.48;60.16;100167.25;5083362;28;20025;-65
2021/05/25 01:16:25;;;;;;;3.13;2.20;;;;;;;10.47;60.21;100169.88;5083446;28;20080;-65
2021/05/25 01:18:51;;;;;;;4.13;2.70;;;;;;;10.52;60.15;100162.88;5083147;28;20037;-65
2021/05/25 01:21:17;;;;;;;5.03;2.10;;;;;;;10.38;60.46;100158.69;5083419;28;20410;-66
2021/05/25 01:23:42;;;;;;;7.70;2.25;;;;;;;10.25;60.95;100150.19;5083223;28;20084;-66
2021/05/25 01:26:09;;;;;;;4.47;2.10;;;;;;;10.35;60.68;100134.53;5083293;28;20617;-65
2021/05/25 01:28:36;;;;;;;3.28;2.00;;;;;;;10.41;60.27;100135.28;5082795;28;20027;-66
2021/05/25 01:31:03;;;;;;;5.78;1.55;;;;;;;10.33;60.69;100144.06;5083313;28;20032;-66
2021/05/25 01:33:31;;;;;;;4.20;2.20;;;;;;;10.18;61.10;100135.56;5083335;28;20040;-67
2021/05/25 01:35:56;;;;;;;3.58;2.05;;;;;;;10.16;61.06;100129.53;5083034;28;20035;-66
2021/05/25 01:38:22;;;;;;;2.70;1.83;;;;;;;10.19;60.98;100134.72;5082978;28;20021;-66
2021/05/25 01:40:49;;;;;;;3.65;2.00;;;;;;;10.22;60.87;100128.63;5083018;28;20021;-67
2021/05/25 01:43:15;;;;;;;5.45;2.22;;;;;;;10.11;61.00;100134.75;5083024;28;20021;-68
2021/05/25 01:45:41;;;;;;;3.63;2.00;;;;;;;10.33;60.58;100120.69;5083177;28;20244;-66
2021/05/25 01:48:08;;;;;;;4.05;2.17;;;;;;;10.21;60.96;100127.75;5083417;28;20053;-67
2021/05/25 01:50:36;;;;;;;2.13;1.38;;;;;;;10.34;60.53;100119.81;5083154;28;20029;-66
2021/05/25 01:53:05;;;;;;;1.60;1.30;;;;;;;10.61;59.74;100123.84;5083019;28;20020;-67
2021/05/25 01:55:33;;;;;;;6.53;2.38;;;;;;;10.27;60.63;100121.66;5082955;28;20029;-68
2021/05/25 01:58:05;;;;;;;3.70;1.83;;;;;;;10.16;61.08;100122.59;5082424;28;20029;-66
2021/05/25 02:00:31;;;;;;;4.35;2.15;;;;;;;10.05;61.37;100114.09;5082916;28;20115;-68
2021/05/25 02:02:57;;;;;;;3.60;2.08;;;;;;;10.01;61.47;100115.88;5084231;28;20042;-67
2021/05/25 02:05:22;;;;;;;3.83;1.90;;;;;;;10.09;61.23;100115.78;5086648;28;20081;-66
2021/05/25 02:07:50;;;;;;;4.18;2.20;;;;;;;10.02;61.46;100116.72;5086844;28;20027;-67
2021/05/25 02:10:25;;;;;;;3.42;2.00;;;;;;;10.22;60.87;100113.03;5086561;28;20017;-67
2021/05/25 02:12:53;;;;;;;2.85;2.20;;;;;;;10.08;61.17;100119.22;5086386;28;20415;-66
2021/05/25 02:15:18;;;;;;;3.83;2.40;;;;;;;10.02;61.32;100106.34;5086664;28;20031;-66
2021/05/25 02:17:44;;;;;;;5.80;2.35;;;;;;;9.96;61.59;100109.00;5086271;28;20040;-67
2021/05/25 02:20:10;;;;;;;2.72;2.40;;;;;;;9.91;61.63;100104.72;5086312;28;20020;-67
2021/05/25 02:22:35;;;;;;;2.80;1.88;;;;;;;10.19;60.77;100102.72;5086451;28;20035;-67
2021/05/25 02:25:00;;;;;;;4.57;2.20;;;;;;;10.05;61.10;100095.94;5086507;28;20080;-67
2021/05/25 02:27:26;;;;;;;3.58;2.10;;;;;;;10.09;61.04;100100.22;5086077;28;20046;-67
2021/05/25 02:29:51;;;;;;;4.00;2.17;;;;;;;9.98;61.46;100089.09;5086195;28;20092;-68
2021/05/25 02:32:16;;;;;;;4.40;2.30;;;;;;;10.03;61.37;100090.75;5086188;28;20027;-68
2021/05/25 02:34:42;;;;;;;6.28;2.40;;;;;;;10.02;61.45;100093.38;5086349;28;20021;-68
2021/05/25 02:37:07;;;;;;;5.25;1.85;;;;;;;10.13;61.05;100085.47;5085906;28;20029;-66
2021/05/25 02:39:32;;;;;;;4.50;2.22;;;;;;;10.13;61.00;100091.50;5086196;28;20025;-67
2021/05/25 02:41:58;;;;;;;3.85;1.77;;;;;;;10.14;60.91;100075.06;5086157;28;20412;-68
2021/05/25 02:44:23;;;;;;;4.35;2.10;;;;;;;10.29;60.44;100068.84;5085589;28;20091;-66
2021/05/25 02:46:48;;;;;;;2.30;1.58;;;;;;;10.26;60.61;100087.03;5086030;28;20024;-67
2021/05/25 02:49:14;;;;;;;2.60;2.00;;;;;;;10.30;60.55;100077.50;5085633;28;20616;-66
2021/05/25 02:51:39;;;;;;;5.65;2.20;;;;;;;10.24;60.75;100080.16;5085849;28;20047;-67
2021/05/25 02:54:04;;;;;;;5.40;2.70;;;;;;;10.21;60.91;100072.44;5085937;28;20024;-67
2021/05/25 02:56:30;;;;;;;3.40;1.70;;;;;;;10.19;61.07;100087.13;5086124;28;20039;-67
2021/05/25 02:58:56;;;;;;;2.58;1.90;;;;;;;10.32;60.45;100078.31;5085310;28;20025;-67
2021/05/25 03:01:21;;;;;;;3.40;2.00;;;;;;;10.29;60.53;100079.22;5084533;28;20463;-67
2021/05/25 03:03:46;;;;;;;4.45;2.03;;;;;;;10.27;60.68;100080.13;5085877;28;20051;-67
2021/05/25 03:06:12;;;;;;;4.30;1.85;;;;;;;10.32;60.45;100078.31;5085793;28;20396;-66
2021/05/25 03:08:37;;;;;;;4.97;1.90;;;;;;;10.34;60.63;100066.19;5085540;28;20023;-67
2021/05/25 03:11:03;;;;;;;5.68;2.33;;;;;;;10.44;60.36;100071.25;5085453;28;20028;-67
2021/05/25 03:13:28;;;;;;;2.58;1.73;;;;;;;10.59;59.89;100088.41;5085136;28;20059;-66
2021/05/25 03:15:53;;;;;;;4.88;1.90;;;;;;;10.57;59.72;100082.38;5084686;28;20021;-67
2021/05/25 03:18:19;;;;;;;2.78;1.88;;;;;;;10.47;60.03;100082.50;5085098;28;20036;-67
2021/05/25 03:20:46;;;;;;;2.45;1.80;;;;;;;10.54;59.94;100078.09;5085404;28;20031;-66
2021/05/25 03:23:11;;;;;;;3.65;2.25;;;;;;;10.43;59.98;100078.19;5085640;28;20079;-67
2021/05/25 03:25:37;;;;;;;3.15;2.00;;;;;;;10.36;60.04;100067.03;5085139;28;20085;-67
2021/05/25 03:28:04;;;;;;;3.88;1.98;;;;;;;10.52;59.74;100072.03;5084789;28;20043;-65
2021/05/25 03:30:30;;;;;;;4.30;2.15;;;;;;;10.57;59.33;100075.44;5083780;28;20081;-67
2021/05/25 03:32:58;;;;;;;6.53;2.38;;;;;;;10.33;60.17;100081.78;5085098;28;20439;-66
2021/05/25 03:35:24;;;;;;;5.13;2.35;;;;;;;10.31;60.24;100057.56;5085203;28;20055;-66
2021/05/25 03:37:50;;;;;;;6.30;2.15;;;;;;;10.38;60.05;100056.63;5083717;28;20024;-66
2021/05/25 03:40:17;;;;;;;3.85;2.08;;;;;;;10.26;60.32;100057.63;5083566;28;20028;-66
2021/05/25 03:42:47;;;;;;;3.88;2.05;;;;;;;10.27;60.45;100054.19;5084633;28;20111;-67
2021/05/25 03:45:12;;;;;;;6.07;1.90;;;;;;;10.32;60.50;100060.16;5084971;28;20028;-67
2021/05/25 03:47:38;;;;;;;3.38;1.95;;;;;;;10.37;60.33;100053.16;5083487;28;20020;-67
2021/05/25 03:50:07;;;;;;;3.05;1.95;;;;;;;10.46;60.21;100054.84;5083318;28;20024;-66
2021/05/25 03:52:35;;;;;;;2.17;1.75;;;;;;;10.72;59.79;100044.97;5084628;28;20025;-66
2021/05/25 03:55:02;;;;;;;4.70;2.10;;;;;;;10.70;59.88;100039.78;5084720;28;20031;-66
2021/05/25 03:59:54;;;;;;;3.28;1.65;;;;;;;10.95;59.30;100049.78;5084754;28;20035;-66
2021/05/25 04:02:20;;;;;;;5.50;2.30;;;;;;;11.13;58.87;100037.38;5084518;28;20025;-66
2021/05/25 04:04:45;;;;;;;5.18;2.33;;;;;;;11.28;58.40;100041.44;5084429;28;20056;-67
2021/05/25 04:07:11;;;;;;;3.20;2.17;;;;;;;11.55;58.21;100046.19;5084549;28;20358;-67
2021/05/25 04:09:36;;;;;;;1.90;1.65;;;;;;;11.76;57.88;100050.13;5084407;28;20052;-67
2021/05/25 04:12:02;;;;;;;3.30;1.95;;;;;;;12.09;56.70;100042.56;5084434;28;20028;-67
2021/05/25 04:14:27;;;;;;;2.88;2.25;;;;;;;12.09;56.46;100044.34;5084180;28;20033;-66
2021/05/25 04:16:53;;;;;;;5.93;2.20;;;;;;;12.25;56.28;100050.06;5084284;28;20094;-67
2021/05/25 04:19:18;;;;;;;4.53;2.80;;;;;;;12.43;55.95;100048.81;5083980;28;20039;-67
2021/05/25 04:21:43;;;;;;;5.00;1.92;;;;;;;12.53;54.48;100052.06;5084092;28;20032;-67
2021/05/25 04:24:09;;;;;;;3.85;1.90;;;;;;;12.14;55.26;100048.53;5084149;28;20020;-67
2021/05/25 04:26:34;;;;;;;4.20;2.25;;;;;;;11.95;56.23;100044.59;5083946;28;20046;-67
2021/05/25 04:29:00;;;;;;;2.50;2.13;;;;;;;11.85;56.54;100042.13;5083974;28;20084;-69
2021/05/25 04:31:25;;;;;;;3.05;1.95;;;;;;;11.80;56.29;100028.41;5084132;28;20039;-67
2021/05/25 04:33:51;;;;;;;5.00;1.80;;;;;;;12.11;56.51;100039.94;5083980;28;20031;-66
2021/05/25 04:36:18;;;;;;;4.43;1.90;;;;;;;12.66;55.46;100029.22;5083880;28;20024;-65
2021/05/25 04:38:43;;;;;;;4.38;2.47;;;;;;;12.81;55.67;100041.00;5083673;28;20024;-65
2021/05/25 04:41:08;;;;;;;3.83;1.70;;;;;;;12.90;55.13;100037.34;5083939;28;20025;-66
2021/05/25 04:43:34;;;;;;;2.13;1.70;;;;;;;12.82;55.15;100026.25;5083851;28;20149;-66
2021/05/25 04:45:59;;;;;;;6.30;2.50;;;;;;;12.87;54.71;100034.81;5083987;28;20017;-67
2021/05/25 04:48:25;;;;;;;4.25;2.28;;;;;;;12.81;54.94;100033.19;5083745;28;20103;-66
2021/05/25 04:50:50;;;;;;;3.95;2.30;;;;;;;12.75;54.57;100023.78;5083781;28;20082;-67
2021/05/25 04:53:15;;;;;;;2.75;2.05;;;;;;;12.49;55.43;100021.78;5083745;28;20036;-67
2021/05/25 04:55:41;;;;;;;6.50;2.00;;;;;;;12.63;55.22;100021.47;5083587;28;20022;-67
2021/05/25 04:58:06;;;;;;;3.45;1.75;;;;;;;12.41;55.85;100026.31;5083118;28;20027;-66
2021/05/25 05:00:32;;;;;;;3.13;1.88;;;;;;;12.34;56.28;100028.19;5083756;28;20040;-67
2021/05/25 05:02:57;;;;;;;2.90;2.00;;;;;;;12.37;56.66;100028.97;5083573;28;20070;-67
2021/05/25 05:05:24;;;;;;;4.25;1.88;;;;;;;12.63;56.02;100018.88;5083467;28;20024;-67
2021/05/25 05:07:49;;;;;;;4.93;2.28;;;;;;;12.56;56.21;100031.16;5083718;28;20016;-67
2021/05/25 05:10:16;;;;;;;4.70;1.80;;;;;;;12.59;56.41;100027.63;5083467;28;20042;-67
2021/05/25 05:12:41;;;;;;;2.60;1.63;;;;;;;12.67;56.33;100022.25;5083251;28;20024;-67
2021/05/25 05:15:08;;;;;;;4.15;1.77;;;;;;;12.83;55.70;100012.31;5083557;28;20028;-66
2021/05/25 05:17:34;;;;;;;4.82;2.47;;;;;;;12.67;56.21;100024.88;5083199;28;20092;-66
2021/05/25 05:19:59;;;;;;;4.53;2.10;;;;;;;12.59;56.58;100012.88;5083450;28;20020;-67
2021/05/25 05:22:26;;;;;;;3.45;1.88;;;;;;;12.68;56.33;100023.97;5082977;28;20060;-66
2021/05/25 05:24:51;;;;;;;13.93;4.20;;;;;;;12.65;56.52;100017.09;5083382;28;20028;-67
2021/05/25 05:27:17;;;;;;;4.90;2.03;;;;;;;12.77;56.26;100021.13;5083163;28;20039;-67
2021/05/25 05:29:43;;;;;;;3.22;1.75;;;;;;;12.92;55.83;100022.53;5083215;28;20133;-67
2021/05/25 05:32:09;;;;;;;3.72;2.13;;;;;;;12.93;55.61;100012.94;5081609;28;20029;-67
2021/05/25 05:34:34;;;;;;;3.75;1.85;;;;;;;12.77;56.30;100029.81;5083474;28;20107;-68
2021/05/25 05:37:00;;;;;;;5.88;2.35;;;;;;;13.07;56.78;100010.00;5083605;28;20073;-67
2021/05/25 05:39:25;;;;;;;3.03;1.98;;;;;;;13.61;56.24;100016.44;5087179;28;20025;-67
2021/05/25 05:41:51;;;;;;;8.95;2.83;;;;;;;14.12;54.31;100008.91;5087463;28;20069;-67
2021/05/25 05:44:16;;;;;;;3.33;2.15;;;;;;;14.31;53.83;100025.81;5087072;28;20025;-68
2021/05/25 05:46:42;;;;;;;5.15;1.60;;;;;;;14.37;53.19;100023.88;5087544;28;20016;-67
2021/05/25 05:49:08;;;;;;;6.75;2.33;;;;;;;14.27;53.31;100021.56;5087144;28;20017;-67
2021/05/25 05:51:33;;;;;;;4.00;2.03;;;;;;;14.29;52.91;100018.03;5087061;28;20051;-67
2021/05/25 05:53:59;;;;;;;5.53;2.08;;;;;;;14.25;53.10;100019.00;5086776;28;20098;-68
2021/05/25 05:56:25;;;;;;;3.60;1.60;;;;;;;14.34;52.63;100016.13;5086987;28;20016;-67
2021/05/25 05:58:51;;;;;;;3.03;1.70;;;;;;;14.55;53.16;100013.75;5086509;28;20031;-67
2021/05/25 06:01:17;;;;;;;2.72;1.63;;;;;;;15.03;51.49;100003.53;5087086;28;20048;-67
2021/05/25 06:03:44;;;;;;;1.95;1.30;;;;;;;15.41;50.16;100004.88;5086869;28;20016;-68
2021/05/25 06:06:10;;;;;;;2.63;1.80;;;;;;;15.19;50.26;100000.41;5086813;28;20016;-68
2021/05/25 06:08:36;;;;;;;3.40;1.45;;;;;;;14.94;50.59;100001.22;5086914;28;20017;-67
2021/05/25 06:11:01;;;;;;;2.42;1.52;;;;;;;14.66;51.81;100005.56;5086927;28;20020;-67
2021/05/25 06:13:27;;;;;;;4.93;1.80;;;;;;;14.60;51.78;100000.56;5086765;28;20115;-67
2021/05/25 06:15:56;;;;;;;3.67;1.80;;;;;;;14.52;52.35;99990.31;5086963;28;20024;-68
2021/05/25 06:18:21;;;;;;;4.55;2.10;;;;;;;14.43;53.03;100001.06;5086282;28;20559;-67
2021/05/25 06:20:46;;;;;;;3.72;1.90;;;;;;;14.52;52.79;99995.53;5086631;28;20028;-67
2021/05/25 06:23:12;;;;;;;2.90;1.52;;;;;;;14.49;52.82;99998.25;5086586;28;20023;-68
2021/05/25 06:25:37;;;;;;;3.53;1.85;;;;;;;14.42;52.79;99995.00;5085440;28;20512;-67
2021/05/25 06:28:03;;;;;;;7.43;2.13;;;;;;;14.34;53.30;99989.16;5086276;28;20017;-67
2021/05/25 06:30:31;;;;;;;2.92;1.67;;;;;;;14.53;52.86;99989.44;5085144;28;20025;-66
2021/05/25 06:32:56;;;;;;;2.97;1.42;;;;;;;14.48;52.38;99986.97;5086519;28;20044;-67
2021/05/25 06:35:22;;;;;;;2.97;1.98;;;;;;;14.18;53.14;100001.81;5086383;28;20020;-66
2021/05/25 06:37:47;;;;;;;2.58;1.80;;;;;;;14.11;53.41;99994.16;5086407;28;20077;-67
2021/05/25 06:40:13;;;;;;;3.90;1.83;;;;;;;14.04;53.20;99997.84;5086208;28;20107;-67
2021/05/25 06:42:39;;;;;;;2.20;1.77;;;;;;;13.98;53.27;99995.41;5086036;28;20021;-67
2021/05/25 06:45:05;;;;;;;2.05;1.20;;;;;;;14.08;53.04;99988.19;5086353;28;20040;-67
2021/05/25 06:47:30;;;;;;;3.22;2.17;;;;;;;13.79;53.63;99976.84;5086098;28;20031;-67
2021/05/25 06:49:56;;;;;;;4.00;1.85;;;;;;;13.71;54.62;99985.75;5086035;28;20020;-67
2021/05/25 06:52:21;;;;;;;4.20;1.95;;;;;;;13.78;54.58;99990.78;5086021;28;20020;-67
2021/05/25 06:54:46;;;;;;;2.47;2.00;;;;;;;13.78;54.65;99982.97;5085888;28;20115;-68
2021/05/25 06:57:12;;;;;;;4.00;2.20;;;;;;;13.69;55.01;99986.69;5085799;28;20032;-67
2021/05/25 06:59:37;;;;;;;2.50;1.85;;;;;;;13.74;54.87;99982.19;5085537;28;20039;-68
2021/05/25 07:02:03;;;;;;;2.97;1.70;;;;;;;13.75;54.88;99981.31;5085850;28;20024;-68
2021/05/25 07:04:29;;;;;;;2.50;2.00;;;;;;;13.71;55.50;99977.91;5084634;28;20115;-67
2021/05/25 07:06:54;;;;;;;3.10;2.13;;;;;;;13.85;55.54;99982.75;5085745;28;20063;-67
2021/05/25 07:09:20;;;;;;;4.72;1.98;;;;;;;13.97;55.17;99957.19;5085883;28;20020;-66
2021/05/25 07:11:45;;;;;;;2.45;1.50;;;;;;;14.20;54.72;99966.91;5085761;28;20033;-68
2021/05/25 07:14:11;;;;;;;1.90;1.58;;;;;;;14.03;54.75;99988.31;5085178;28;20019;-68
2021/05/25 07:16:36;;;;;;;3.42;1.63;;;;;;;14.00;54.86;99985.81;5085446;28;20570;-67
2021/05/25 07:19:03;;;;;;;1.90;1.60;;;;;;;13.99;55.09;99948.41;5083985;28;20056;-67
2021/05/25 07:21:28;;;;;;;5.25;1.85;;;;;;;14.15;54.85;99986.25;5085578;28;20029;-67
2021/05/25 07:23:54;;;;;;;3.58;1.95;;;;;;;14.17;55.01;99971.41;5085520;28;20032;-67
2021/05/25 07:26:20;;;;;;;5.95;2.10;;;;;;;14.37;54.92;99979.47;5085837;28;20134;-67
2021/05/25 07:28:45;;;;;;;4.70;2.28;;;;;;;14.49;54.69;99979.97;5084907;28;20080;-67
2021/05/25 07:31:10;;;;;;;2.80;2.00;;;;;;;14.72;54.10;99988.84;5085248;28;20025;-67
2021/05/25 07:33:36;;;;;;;4.00;1.90;;;;;;;14.97;53.34;99968.00;5085364;28;20080;-68
2021/05/25 07:36:02;;;;;;;3.28;2.28;;;;;;;15.24;52.68;99970.56;5085333;28;20032;-68
2021/05/25 07:38:27;;;;;;;3.53;1.90;;;;;;;15.28;52.14;99963.47;5083393;28;20020;-68
2021/05/25 07:40:53;;;;;;;5.30;1.85;;;;;;;15.30;52.05;99973.88;5085136;28;20056;-69
2021/05/25 07:43:19;;;;;;;3.17;1.95;;;;;;;15.36;52.41;99969.28;5084977;28;20020;-68
2021/05/25 07:45:46;;;;;;;3.92;1.85;;;;;;;15.71;51.72;99983.75;5085379;28;20020;-68
2021/05/25 07:48:11;;;;;;;3.38;1.70;;;;;;;15.88;50.60;99970.03;5084982;28;20076;-68
2021/05/25 07:50:37;;;;;;;4.32;1.75;;;;;;;15.86;50.55;99967.47;5084933;28;20028;-68
2021/05/25 07:53:02;;;;;;;4.75;1.70;;;;;;;15.92;50.30;99965.56;5083588;28;20031;-65
2021/05/25 07:55:30;;;;;;;2.20;1.65;;;;;;;15.78;50.75;99961.69;5083480;28;20118;-65
2021/05/25 07:57:57;;;;;;;6.97;2.22;;;;;;;15.90;50.90;99967.34;5084545;28;20031;-66
2021/05/25 08:00:23;;;;;;;3.72;1.60;;;;;;;15.93;51.26;99968.09;5084116;28;20082;-65
2021/05/25 08:02:49;;;;;;;3.67;2.13;;;;;;;16.13;50.72;99963.91;5084594;28;20088;-64
2021/05/25 08:05:16;;;;;;;2.45;1.55;;;;;;;16.25;50.70;99966.94;5084903;28;20031;-64
2021/05/25 08:07:42;;;;;;;2.67;1.88;;;;;;;16.55;49.21;99982.38;5084598;28;20012;-65
2021/05/25 08:10:09;;;;;;;5.18;1.92;;;;;;;16.42;49.65;99966.28;5084597;28;20072;-66
2021/05/25 08:12:35;;;;;;;2.80;1.98;;;;;;;16.47;49.09;99966.94;5084266;28;20020;-65
2021/05/25 08:15:02;;;;;;;2.03;1.48;;;;;;;16.51;48.86;99967.69;5084540;28;20111;-65
2021/05/25 08:20:19;;;;;;;3.05;2.10;;;;;;;16.53;49.28;99948.38;5084301;28;20028;-65
2021/05/25 08:22:50;;;;;;;7.13;1.80;;;;;;;16.43;49.55;99953.13;5084262;28;20360;-66
2021/05/25 08:25:18;;;;;;;2.65;1.73;;;;;;;16.63;48.91;99951.44;5084212;28;20075;-66
2021/05/25 08:27:46;;;;;;;2.53;1.52;;;;;;;16.72;48.71;99953.69;5083705;28;20158;-64
2021/05/25 08:30:14;;;;;;;3.08;1.88;;;;;;;16.87;49.34;99955.75;5083890;28;20017;-65
2021/05/25 08:32:39;;;;;;;3.17;1.85;;;;;;;17.26;48.83;99965.47;5082106;28;20021;-65
2021/05/25 08:35:06;;;;;;;1.85;1.45;;;;;;;17.63;47.50;99968.25;5083773;28;20080;-67
2021/05/25 08:37:33;;;;;;;3.88;1.40;;;;;;;17.89;46.71;99967.97;5083993;28;20016;-64
2021/05/25 08:39:59;;;;;;;3.00;1.60;;;;;;;17.86;47.13;99952.38;5082396;28;20032;-65
2021/05/25 08:42:25;;;;;;;1.70;1.55;;;;;;;17.94;47.00;99950.22;5083821;28;20020;-65
2021/05/25 08:44:50;;;;;;;6.10;1.90;;;;;;;18.05;46.98;99953.19;5083779;28;20028;-66
2021/05/25 08:47:16;;;;;;;2.30;1.48;;;;;;;18.05;46.48;99953.19;5083853;28;20096;-65
2021/05/25 08:49:44;;;;;;;4.60;1.50;;;;;;;18.05;47.25;99929.56;5083766;28;20024;-64
2021/05/25 08:52:10;;;;;;;6.22;2.22;;;;;;;18.29;47.00;99936.38;5083833;28;20457;-64
2021/05/25 08:54:38;;;;;;;3.80;1.67;;;;;;;18.44;46.20;99942.66;5083723;28;20559;-65
2021/05/25 08:57:03;;;;;;;2.35;1.60;;;;;;;18.18;46.38;99932.47;5083451;28;20024;-66
2021/05/25 08:59:28;;;;;;;2.85;2.15;;;;;;;17.93;47.06;99933.63;5083183;28;20023;-67
2021/05/25 09:01:54;;;;;;;3.05;2.00;;;;;;;17.95;47.47;99941.44;5083598;28;20021;-65
2021/05/25 09:04:20;;;;;;;3.85;1.98;;;;;;;18.15;46.66;99926.50;5082418;28;20067;-65
2021/05/25 09:06:49;;;;;;;5.85;1.60;;;;;;;18.22;46.10;99922.69;5083605;28;20027;-67
2021/05/25 09:09:16;;;;;;;4.47;2.05;;;;;;;18.50;45.13;99910.81;5083648;28;20023;-65
2021/05/25 09:12:18;;;;;;;4.35;1.73;;;;;;;18.64;44.88;99920.63;5083218;28;20027;-65
2021/05/25 09:14:49;;;;;;;3.53;2.00;;;;;;;18.99;43.79;99927.66;5083067;28;20043;-65
2021/05/25 09:17:23;;;;;;;2.50;1.85;;;;;;;19.02;43.16;99927.50;5083248;28;20054;-64
2021/05/25 09:19:50;;;;;;;6.15;2.00;;;;;;;18.99;43.23;99919.78;5082024;28;20066;-65
2021/05/25 09:22:41;;;;;;;2.72;1.73;;;;;;;18.75;43.52;99924.50;5083482;28;20032;-65
2021/05/25 09:25:17;;;;;;;10.02;2.13;;;;;;;18.53;43.46;99917.72;5083436;28;20109;-66
2021/05/25 09:27:48;;;;;;;2.78;1.60;;;;;;;17.99;44.51;99900.13;5083121;28;20020;-64
2021/05/25 09:30:22;;;;;;;2.33;1.90;;;;;;;17.68;45.21;99916.38;5083115;28;20036;-65
2021/05/25 09:32:59;;;;;;;2.78;1.73;;;;;;;17.80;44.28;99928.09;5083372;28;20039;-65
2021/05/25 09:35:36;;;;;;;2.67;1.60;;;;;;;17.75;44.28;99927.44;5083580;28;20065;-67
2021/05/25 09:38:08;;;;;;;3.13;1.67;;;;;;;17.74;44.95;99914.38;5083061;28;20082;-64
2021/05/25 09:40:35;;;;;;;3.58;2.00;;;;;;;17.92;44.90;99904.81;5083160;28;20058;-66
2021/05/25 09:43:19;;;;;;;3.35;1.55;;;;;;;18.09;44.19;99911.88;5083294;28;20025;-65
2021/05/25 09:46:05;;;;;;;5.72;2.20;;;;;;;18.43;43.46;99907.66;5083278;28;20036;-66
2021/05/25 09:48:33;;;;;;;3.25;1.58;;;;;;;18.83;42.40;99896.06;5083147;28;20021;-66
2021/05/25 09:51:01;;;;;;;5.78;2.03;;;;;;;18.67;42.85;99909.13;5083185;28;20241;-65
2021/05/25 09:53:31;;;;;;;4.53;1.50;;;;;;;18.80;42.54;99910.19;5083455;28;20224;-66
2021/05/25 09:56:03;;;;;;;3.05;1.67;;;;;;;18.72;41.66;99896.59;5083063;28;20066;-67
2021/05/25 09:58:32;;;;;;;3.95;1.50;;;;;;;18.70;41.39;99891.44;5082807;28;20028;-64
2021/05/25 10:00:57;;;;;;;2.78;2.05;;;;;;;18.63;42.23;99904.94;5082856;28;20063;-65
2021/05/25 10:03:26;;;;;;;4.88;1.90;;;;;;;18.65;41.61;99895.19;5082987;28;20020;-66
2021/05/25 10:05:53;;;;;;;4.28;1.60;;;;;;;18.73;41.11;99893.03;5083184;28;20028;-66
2021/05/25 10:08:22;;;;;;;1.98;1.35;;;;;;;18.49;40.99;99895.13;5083052;28;20044;-64
2021/05/25 10:10:49;;;;;;;2.42;1.42;;;;;;;18.28;42.01;99893.47;5082739;28;20028;-65
2021/05/25 10:13:16;;;;;;;3.08;1.65;;;;;;;18.09;42.32;99896.97;5082774;28;20028;-66
2021/05/25 10:15:46;;;;;;;4.05;1.50;;;;;;;17.99;42.50;99884.38;5081644;28;20055;-64
2021/05/25 10:18:28;;;;;;;3.47;1.50;;;;;;;18.22;41.62;99893.78;5082532;28;20060;-65
2021/05/25 10:20:55;;;;;;;2.38;1.40;;;;;;;18.14;41.91;99888.03;5082825;28;20023;-65
2021/05/25 10:23:22;;;;;;;4.82;1.67;;;;;;;18.02;42.84;99895.56;5081588;28;20028;-66
2021/05/25 10:25:52;;;;;;;2.78;1.52;;;;;;;18.26;42.52;99907.63;5085337;28;20028;-67
2021/05/25 10:28:17;;;;;;;4.75;1.52;;;;;;;18.14;42.57;99882.78;5086634;28;20012;-66
2021/05/25 10:30:49;;;;;;;6.50;1.75;;;;;;;17.96;43.54;99890.59;5086248;28;20028;-66
2021/05/25 10:33:21;;;;;;;2.58;1.50;;;;;;;17.94;43.13;99901.19;5087095;28;20024;-65
2021/05/25 10:36:07;;;;;;;2.03;1.50;;;;;;;17.81;43.41;99893.03;5086489;28;20028;-64
2021/05/25 10:38:46;;;;;;;3.58;1.70;;;;;;;17.71;43.67;99899.66;5084997;28;20043;-65
2021/05/25 10:41:28;;;;;;;5.50;4.25;;;;;;;17.65;43.99;99905.19;5086280;28;20024;-68
2021/05/25 10:43:55;;;;;;;3.70;2.03;;;;;;;17.37;44.98;99890.69;5085960;28;20056;-65
2021/05/25 10:46:23;;;;;;;1.70;1.55;;;;;;;17.25;45.32;99899.97;5084724;28;20059;-65
2021/05/25 10:51:53;;;;;;;2.58;1.67;;;;;;;17.13;46.19;99894.34;5086142;28;20024;-65
2021/05/25 10:54:43;;;;;;;4.13;2.00;;;;;;;17.15;46.39;99894.28;5084668;28;20025;-64
2021/05/25 10:57:33;;;;;;;3.63;2.17;;;;;;;17.03;46.41;99874.69;5085831;28;20103;-66
2021/05/25 11:00:06;;;;;;;2.30;1.73;;;;;;;17.01;46.44;99871.25;5084208;28;20052;-65
2021/05/25 11:03:01;;;;;;;2.38;2.17;;;;;;;16.94;46.88;99875.91;5086061;28;20016;-66
2021/05/25 11:05:37;;;;;;;5.65;2.30;;;;;;;16.85;47.90;99872.75;5086168;28;20079;-69
2021/05/25 11:08:08;;;;;;;5.03;2.60;;;;;;;16.35;50.08;99881.84;5085817;28;20016;-67
2021/05/25 11:10:33;;;;;;;4.23;2.27;;;;;;;16.16;51.91;99890.47;5085733;28;20024;-66
2021/05/25 11:13:17;;;;;;;3.83;2.00;;;;;;;16.05;53.18;99880.44;5085546;28;20109;-67
2021/05/25 11:16:08;;;;;;;4.05;2.42;;;;;;;15.51;56.27;99896.38;5085664;28;20021;-66
2021/05/25 11:18:54;;;;;;;7.72;3.00;;;;;;;15.13;57.73;99889.03;5085227;28;20155;-67
2021/05/25 11:24:32;;;;;;;6.55;3.72;;;;;;;14.56;60.83;99899.66;5051602;28;20037;-66
2021/05/25 11:27:11;;;;;;;5.75;3.38;;;;;;;14.26;63.63;99921.50;5085753;28;20027;-66
2021/05/25 11:29:49;;;;;;;8.65;4.47;;;;;;;13.86;67.31;99952.28;5085102;28;20017;-74
2021/05/25 11:32:17;;;;;;;3.63;2.25;;;;;;;13.46;69.92;99962.94;5083972;28;20186;-65
2021/05/25 11:34:43;;;;;;;5.90;3.30;;;;;;;12.84;72.26;99967.16;5085251;28;20099;-61
2021/05/25 11:37:10;;;;;;;7.47;4.97;;;;;;;12.33;74.27;99962.25;5084996;28;20240;-61
2021/05/25 11:39:36;;;;;;;7.47;4.20;;;;;;;12.27;75.11;99960.66;5084909;28;20017;-60
2021/05/25 11:42:07;;;;;;;6.85;4.07;;;;;;;12.24;76.38;99963.31;5085157;28;20031;-63